sensor_id;sensor_type;location;lat;lon;timestamp;P1;durP1;ratioP1;P2;durP2;ratioP2
19057;SDS011;9662;53.612;9.914;2023-01-24T00:01:59;22.83;;;9.85;;
19057;SDS011;9662;53.612;9.914;2023-01-24T00:04:26;20.10;;;8.95;;
19057;SDS011;9662;53.612;9.914;2023-01-24T00:06:53;19.45;;;9.30;;
19057;SDS011;9662;53.612;9.914;2023-01-24T00:09:20;23.73;;;10.25;;
19057;SDS011;9662;53.612;9.914;2023-01-24T00:11:48;24.43;;;9.23;;
19057;SDS011;9662;53.612;9.914;2023-01-24T00:14:15;18.02;;;8.88;;
19057;SDS011;9662;53.612;9.914;2023-01-24T00:16:43;16.05;;;9.00;;
19057;SDS011;9662;53.612;9.914;2023-01-24T00:19:10;22.92;;;8.93;;
19057;SDS011;9662;53.612;9.914;2023-01-24T00:21:37;26.57;;;9.77;;
19057;SDS011;9662;53.612;9.914;2023-01-24T00:24:04;23.33;;;9.52;;
19057;SDS011;9662;53.612;9.914;2023-01-24T00:26:31;15.52;;;9.10;;
19057;SDS011;9662;53.612;9.914;2023-01-24T00:29:00;18.07;;;8.57;;
19057;SDS011;9662;53.612;9.914;2023-01-24T00:31:27;18.20;;;9.32;;
19057;SDS011;9662;53.612;9.914;2023-01-24T00:33:54;19.77;;;8.70;;
19057;SDS011;9662;53.612;9.914;2023-01-24T00:36:21;13.80;;;8.80;;
19057;SDS011;9662;53.612;9.914;2023-01-24T00:38:48;20.25;;;8.73;;
19057;SDS011;9662;53.612;9.914;2023-01-24T00:41:15;22.77;;;9.18;;
19057;SDS011;9662;53.612;9.914;2023-01-24T00:43:43;18.75;;;8.45;;
19057;SDS011;9662;53.612;9.914;2023-01-24T00:46:11;16.20;;;9.13;;
19057;SDS011;9662;53.612;9.914;2023-01-24T00:48:38;16.65;;;10.10;;
19057;SDS011;9662;53.612;9.914;2023-01-24T00:51:05;18.10;;;8.43;;
19057;SDS011;9662;53.612;9.914;2023-01-24T00:53:33;23.95;;;9.57;;
19057;SDS011;9662;53.612;9.914;2023-01-24T00:56:00;18.10;;;8.80;;
19057;SDS011;9662;53.612;9.914;2023-01-24T00:58:27;20.27;;;9.10;;
19057;SDS011;9662;53.612;9.914;2023-01-24T01:00:54;17.50;;;8.35;;
19057;SDS011;9662;53.612;9.914;2023-01-24T01:03:24;19.13;;;9.00;;
19057;SDS011;9662;53.612;9.914;2023-01-24T01:05:56;16.92;;;8.45;;
19057;SDS011;9662;53.612;9.914;2023-01-24T01:08:23;14.30;;;9.45;;
19057;SDS011;9662;53.612;9.914;2023-01-24T01:10:50;21.52;;;9.07;;
19057;SDS011;9662;53.612;9.914;2023-01-24T01:13:17;23.73;;;9.07;;
19057;SDS011;9662;53.612;9.914;2023-01-24T01:15:44;15.85;;;7.82;;
19057;SDS011;9662;53.612;9.914;2023-01-24T01:18:11;19.53;;;8.40;;
19057;SDS011;9662;53.612;9.914;2023-01-24T01:20:40;14.52;;;8.07;;
19057;SDS011;9662;53.612;9.914;2023-01-24T01:23:07;22.60;;;9.40;;
19057;SDS011;9662;53.612;9.914;2023-01-24T01:25:37;22.07;;;9.13;;
19057;SDS011;9662;53.612;9.914;2023-01-24T01:28:04;23.02;;;8.85;;
19057;SDS011;9662;53.612;9.914;2023-01-24T01:30:31;23.95;;;10.10;;
19057;SDS011;9662;53.612;9.914;2023-01-24T01:32:58;16.27;;;8.82;;
19057;SDS011;9662;53.612;9.914;2023-01-24T01:35:25;22.77;;;9.55;;
19057;SDS011;9662;53.612;9.914;2023-01-24T01:37:54;17.75;;;8.32;;
19057;SDS011;9662;53.612;9.914;2023-01-24T01:40:21;22.67;;;9.17;;
19057;SDS011;9662;53.612;9.914;2023-01-24T01:42:49;20.30;;;9.23;;
19057;SDS011;9662;53.612;9.914;2023-01-24T01:45:30;21.13;;;8.90;;
19057;SDS011;9662;53.612;9.914;2023-01-24T01:47:57;12.50;;;8.52;;
19057;SDS011;9662;53.612;9.914;2023-01-24T01:50:26;17.67;;;9.07;;
19057;SDS011;9662;53.612;9.914;2023-01-24T01:52:56;23.77;;;9.40;;
19057;SDS011;9662;53.612;9.914;2023-01-24T01:55:25;18.15;;;8.98;;
19057;SDS011;9662;53.612;9.914;2023-01-24T01:57:55;21.75;;;8.88;;
19057;SDS011;9662;53.612;9.914;2023-01-24T02:00:23;18.38;;;8.90;;
19057;SDS011;9662;53.612;9.914;2023-01-24T02:02:52;18.48;;;7.93;;
19057;SDS011;9662;53.612;9.914;2023-01-24T02:05:41;17.92;;;8.88;;
19057;SDS011;9662;53.612;9.914;2023-01-24T02:08:09;15.30;;;8.43;;
19057;SDS011;9662;53.612;9.914;2023-01-24T02:10:39;16.73;;;8.25;;
19057;SDS011;9662;53.612;9.914;2023-01-24T02:13:20;16.95;;;8.65;;
19057;SDS011;9662;53.612;9.914;2023-01-24T02:15:47;22.60;;;9.15;;
19057;SDS011;9662;53.612;9.914;2023-01-24T02:18:40;18.95;;;8.90;;
19057;SDS011;9662;53.612;9.914;2023-01-24T02:21:07;15.15;;;8.73;;
19057;SDS011;9662;53.612;9.914;2023-01-24T02:23:43;19.33;;;9.10;;
19057;SDS011;9662;53.612;9.914;2023-01-24T02:26:14;25.73;;;10.32;;
19057;SDS011;9662;53.612;9.914;2023-01-24T02:28:43;20.10;;;8.77;;
19057;SDS011;9662;53.612;9.914;2023-01-24T02:31:11;22.15;;;9.77;;
19057;SDS011;9662;53.612;9.914;2023-01-24T02:33:38;14.68;;;7.95;;
19057;SDS011;9662;53.612;9.914;2023-01-24T02:36:11;14.75;;;8.75;;
19057;SDS011;9662;53.612;9.914;2023-01-24T02:38:39;12.18;;;8.20;;
19057;SDS011;9662;53.612;9.914;2023-01-24T02:41:07;12.00;;;7.97;;
19057;SDS011;9662;53.612;9.914;2023-01-24T02:43:37;16.17;;;8.80;;
19057;SDS011;9662;53.612;9.914;2023-01-24T02:46:05;20.85;;;8.90;;
19057;SDS011;9662;53.612;9.914;2023-01-24T02:48:32;16.38;;;8.30;;
19057;SDS011;9662;53.612;9.914;2023-01-24T02:50:59;19.03;;;7.63;;
19057;SDS011;9662;53.612;9.914;2023-01-24T02:53:44;14.60;;;8.03;;
19057;SDS011;9662;53.612;9.914;2023-01-24T02:56:11;13.15;;;7.82;;
19057;SDS011;9662;53.612;9.914;2023-01-24T02:58:57;14.03;;;8.40;;
19057;SDS011;9662;53.612;9.914;2023-01-24T03:01:24;18.15;;;8.65;;
19057;SDS011;9662;53.612;9.914;2023-01-24T03:03:51;16.30;;;7.95;;
19057;SDS011;9662;53.612;9.914;2023-01-24T03:06:19;11.18;;;7.38;;
19057;SDS011;9662;53.612;9.914;2023-01-24T03:08:46;15.88;;;8.52;;
19057;SDS011;9662;53.612;9.914;2023-01-24T03:11:14;12.63;;;7.90;;
19057;SDS011;9662;53.612;9.914;2023-01-24T03:13:41;15.13;;;7.93;;
19057;SDS011;9662;53.612;9.914;2023-01-24T03:16:27;13.20;;;7.53;;
19057;SDS011;9662;53.612;9.914;2023-01-24T03:19:12;12.43;;;7.10;;
19057;SDS011;9662;53.612;9.914;2023-01-24T03:21:57;14.48;;;7.50;;
19057;SDS011;9662;53.612;9.914;2023-01-24T03:24:41;13.13;;;7.25;;
19057;SDS011;9662;53.612;9.914;2023-01-24T03:27:26;13.13;;;7.30;;
19057;SDS011;9662;53.612;9.914;2023-01-24T03:30:10;18.90;;;7.55;;
19057;SDS011;9662;53.612;9.914;2023-01-24T03:33:00;16.67;;;8.43;;
19057;SDS011;9662;53.612;9.914;2023-01-24T03:35:47;9.82;;;7.20;;
19057;SDS011;9662;53.612;9.914;2023-01-24T03:38:18;12.75;;;7.63;;
19057;SDS011;9662;53.612;9.914;2023-01-24T03:41:03;13.38;;;7.43;;
19057;SDS011;9662;53.612;9.914;2023-01-24T03:43:33;14.82;;;7.65;;
19057;SDS011;9662;53.612;9.914;2023-01-24T03:46:00;14.38;;;8.23;;
19057;SDS011;9662;53.612;9.914;2023-01-24T03:48:28;12.20;;;8.23;;
19057;SDS011;9662;53.612;9.914;2023-01-24T03:51:01;18.20;;;7.68;;
19057;SDS011;9662;53.612;9.914;2023-01-24T03:53:46;15.10;;;7.80;;
19057;SDS011;9662;53.612;9.914;2023-01-24T03:56:13;16.05;;;7.90;;
19057;SDS011;9662;53.612;9.914;2023-01-24T03:58:40;15.23;;;7.38;;
19057;SDS011;9662;53.612;9.914;2023-01-24T04:01:07;15.33;;;7.80;;
19057;SDS011;9662;53.612;9.914;2023-01-24T04:03:36;8.80;;;7.57;;
19057;SDS011;9662;53.612;9.914;2023-01-24T04:06:03;11.93;;;7.03;;
19057;SDS011;9662;53.612;9.914;2023-01-24T04:08:30;15.43;;;8.25;;
19057;SDS011;9662;53.612;9.914;2023-01-24T04:10:57;12.85;;;7.55;;
19057;SDS011;9662;53.612;9.914;2023-01-24T04:13:24;18.67;;;7.70;;
19057;SDS011;9662;53.612;9.914;2023-01-24T04:15:51;13.30;;;7.93;;
19057;SDS011;9662;53.612;9.914;2023-01-24T04:18:19;18.77;;;7.88;;
19057;SDS011;9662;53.612;9.914;2023-01-24T04:20:47;17.55;;;8.73;;
19057;SDS011;9662;53.612;9.914;2023-01-24T04:23:14;15.07;;;8.20;;
19057;SDS011;9662;53.612;9.914;2023-01-24T04:25:41;17.87;;;8.30;;
19057;SDS011;9662;53.612;9.914;2023-01-24T04:28:08;19.20;;;8.60;;
19057;SDS011;9662;53.612;9.914;2023-01-24T04:30:35;15.85;;;7.90;;
19057;SDS011;9662;53.612;9.914;2023-01-24T04:33:02;19.58;;;8.75;;
19057;SDS011;9662;53.612;9.914;2023-01-24T04:35:30;14.57;;;7.70;;
19057;SDS011;9662;53.612;9.914;2023-01-24T04:37:58;13.35;;;7.45;;
19057;SDS011;9662;53.612;9.914;2023-01-24T04:40:26;14.15;;;7.82;;
19057;SDS011;9662;53.612;9.914;2023-01-24T04:42:54;15.93;;;7.55;;
19057;SDS011;9662;53.612;9.914;2023-01-24T04:45:21;16.63;;;7.80;;
19057;SDS011;9662;53.612;9.914;2023-01-24T04:47:49;12.98;;;6.88;;
19057;SDS011;9662;53.612;9.914;2023-01-24T04:50:16;11.77;;;6.88;;
19057;SDS011;9662;53.612;9.914;2023-01-24T04:52:43;19.60;;;6.40;;
19057;SDS011;9662;53.612;9.914;2023-01-24T04:55:11;9.00;;;7.55;;
19057;SDS011;9662;53.612;9.914;2023-01-24T04:57:38;14.32;;;7.10;;
19057;SDS011;9662;53.612;9.914;2023-01-24T05:00:06;14.63;;;7.33;;
19057;SDS011;9662;53.612;9.914;2023-01-24T05:02:34;9.77;;;6.53;;
19057;SDS011;9662;53.612;9.914;2023-01-24T05:05:02;14.23;;;7.38;;
19057;SDS011;9662;53.612;9.914;2023-01-24T05:07:29;10.88;;;6.95;;
19057;SDS011;9662;53.612;9.914;2023-01-24T05:09:56;11.80;;;7.53;;
19057;SDS011;9662;53.612;9.914;2023-01-24T05:12:25;14.88;;;7.35;;
19057;SDS011;9662;53.612;9.914;2023-01-24T05:14:52;12.13;;;7.00;;
19057;SDS011;9662;53.612;9.914;2023-01-24T05:17:19;7.60;;;5.88;;
19057;SDS011;9662;53.612;9.914;2023-01-24T05:19:46;7.03;;;6.13;;
19057;SDS011;9662;53.612;9.914;2023-01-24T05:22:14;7.93;;;5.82;;
19057;SDS011;9662;53.612;9.914;2023-01-24T05:24:41;6.70;;;4.35;;
19057;SDS011;9662;53.612;9.914;2023-01-24T05:27:08;4.65;;;4.35;;
19057;SDS011;9662;53.612;9.914;2023-01-24T05:29:36;5.70;;;4.83;;
19057;SDS011;9662;53.612;9.914;2023-01-24T05:32:04;4.93;;;4.40;;
19057;SDS011;9662;53.612;9.914;2023-01-24T05:34:31;8.33;;;4.50;;
19057;SDS011;9662;53.612;9.914;2023-01-24T05:36:58;9.82;;;5.63;;
19057;SDS011;9662;53.612;9.914;2023-01-24T05:39:25;14.23;;;6.80;;
19057;SDS011;9662;53.612;9.914;2023-01-24T05:41:52;11.80;;;6.25;;
19057;SDS011;9662;53.612;9.914;2023-01-24T05:44:19;8.90;;;5.00;;
19057;SDS011;9662;53.612;9.914;2023-01-24T05:46:48;7.05;;;4.80;;
19057;SDS011;9662;53.612;9.914;2023-01-24T05:49:15;4.35;;;4.07;;
19057;SDS011;9662;53.612;9.914;2023-01-24T05:51:42;5.70;;;4.60;;
19057;SDS011;9662;53.612;9.914;2023-01-24T05:54:09;28.37;;;8.20;;
19057;SDS011;9662;53.612;9.914;2023-01-24T05:56:36;4.82;;;4.43;;
19057;SDS011;9662;53.612;9.914;2023-01-24T05:59:03;4.97;;;4.68;;
19057;SDS011;9662;53.612;9.914;2023-01-24T06:01:30;4.88;;;4.50;;
19057;SDS011;9662;53.612;9.914;2023-01-24T06:03:59;5.53;;;4.90;;
19057;SDS011;9662;53.612;9.914;2023-01-24T06:06:26;6.07;;;4.90;;
19057;SDS011;9662;53.612;9.914;2023-01-24T06:08:53;7.67;;;4.97;;
19057;SDS011;9662;53.612;9.914;2023-01-24T06:11:22;6.30;;;4.70;;
19057;SDS011;9662;53.612;9.914;2023-01-24T06:13:50;5.35;;;4.82;;
19057;SDS011;9662;53.612;9.914;2023-01-24T06:16:17;7.28;;;5.70;;
19057;SDS011;9662;53.612;9.914;2023-01-24T06:18:45;8.45;;;5.68;;
19057;SDS011;9662;53.612;9.914;2023-01-24T06:21:17;5.68;;;5.22;;
19057;SDS011;9662;53.612;9.914;2023-01-24T06:23:47;11.23;;;6.63;;
19057;SDS011;9662;53.612;9.914;2023-01-24T06:26:14;7.28;;;5.35;;
19057;SDS011;9662;53.612;9.914;2023-01-24T06:28:41;9.73;;;5.60;;
19057;SDS011;9662;53.612;9.914;2023-01-24T06:31:10;5.72;;;4.75;;
19057;SDS011;9662;53.612;9.914;2023-01-24T06:33:43;6.80;;;5.77;;
19057;SDS011;9662;53.612;9.914;2023-01-24T06:36:16;6.20;;;5.60;;
19057;SDS011;9662;53.612;9.914;2023-01-24T06:38:45;7.32;;;5.60;;
19057;SDS011;9662;53.612;9.914;2023-01-24T06:41:13;5.93;;;5.10;;
19057;SDS011;9662;53.612;9.914;2023-01-24T06:43:41;5.80;;;4.72;;
19057;SDS011;9662;53.612;9.914;2023-01-24T06:46:08;5.60;;;4.70;;
19057;SDS011;9662;53.612;9.914;2023-01-24T06:48:36;5.15;;;4.68;;
19057;SDS011;9662;53.612;9.914;2023-01-24T06:51:03;7.63;;;4.68;;
19057;SDS011;9662;53.612;9.914;2023-01-24T06:53:31;7.15;;;5.20;;
19057;SDS011;9662;53.612;9.914;2023-01-24T06:55:59;6.47;;;5.47;;
19057;SDS011;9662;53.612;9.914;2023-01-24T06:58:27;11.52;;;4.85;;
19057;SDS011;9662;53.612;9.914;2023-01-24T07:00:54;5.60;;;5.10;;
19057;SDS011;9662;53.612;9.914;2023-01-24T07:03:21;7.00;;;4.93;;
19057;SDS011;9662;53.612;9.914;2023-01-24T07:05:48;5.90;;;4.72;;
19057;SDS011;9662;53.612;9.914;2023-01-24T07:08:15;6.20;;;5.07;;
19057;SDS011;9662;53.612;9.914;2023-01-24T07:10:46;5.72;;;5.03;;
19057;SDS011;9662;53.612;9.914;2023-01-24T07:13:14;9.48;;;5.75;;
19057;SDS011;9662;53.612;9.914;2023-01-24T07:15:41;7.78;;;5.18;;
19057;SDS011;9662;53.612;9.914;2023-01-24T07:18:09;6.13;;;5.18;;
19057;SDS011;9662;53.612;9.914;2023-01-24T07:20:37;7.88;;;5.35;;
19057;SDS011;9662;53.612;9.914;2023-01-24T07:23:05;6.10;;;5.40;;
19057;SDS011;9662;53.612;9.914;2023-01-24T07:25:32;5.38;;;4.90;;
19057;SDS011;9662;53.612;9.914;2023-01-24T07:28:02;11.40;;;6.55;;
19057;SDS011;9662;53.612;9.914;2023-01-24T07:30:30;5.82;;;5.22;;
19057;SDS011;9662;53.612;9.914;2023-01-24T07:32:57;8.32;;;6.25;;
19057;SDS011;9662;53.612;9.914;2023-01-24T07:35:24;9.50;;;5.28;;
19057;SDS011;9662;53.612;9.914;2023-01-24T07:37:52;5.38;;;4.75;;
19057;SDS011;9662;53.612;9.914;2023-01-24T07:40:19;6.73;;;5.57;;
19057;SDS011;9662;53.612;9.914;2023-01-24T07:42:46;7.72;;;5.88;;
19057;SDS011;9662;53.612;9.914;2023-01-24T07:45:13;8.32;;;5.95;;
19057;SDS011;9662;53.612;9.914;2023-01-24T07:47:41;6.85;;;5.15;;
19057;SDS011;9662;53.612;9.914;2023-01-24T07:50:09;7.22;;;5.53;;
19057;SDS011;9662;53.612;9.914;2023-01-24T07:52:36;5.93;;;5.28;;
19057;SDS011;9662;53.612;9.914;2023-01-24T07:55:04;9.52;;;5.38;;
19057;SDS011;9662;53.612;9.914;2023-01-24T07:57:31;5.00;;;4.70;;
19057;SDS011;9662;53.612;9.914;2023-01-24T07:59:58;6.53;;;5.35;;
19057;SDS011;9662;53.612;9.914;2023-01-24T08:02:25;9.55;;;5.43;;
19057;SDS011;9662;53.612;9.914;2023-01-24T08:04:53;5.90;;;5.30;;
19057;SDS011;9662;53.612;9.914;2023-01-24T08:07:20;5.70;;;5.07;;
19057;SDS011;9662;53.612;9.914;2023-01-24T08:09:48;5.75;;;5.25;;
19057;SDS011;9662;53.612;9.914;2023-01-24T08:12:15;6.57;;;5.15;;
19057;SDS011;9662;53.612;9.914;2023-01-24T08:14:42;7.63;;;5.80;;
19057;SDS011;9662;53.612;9.914;2023-01-24T08:17:09;8.43;;;5.50;;
19057;SDS011;9662;53.612;9.914;2023-01-24T08:19:37;12.13;;;5.50;;
19057;SDS011;9662;53.612;9.914;2023-01-24T08:22:05;5.85;;;5.45;;
19057;SDS011;9662;53.612;9.914;2023-01-24T08:24:33;7.53;;;5.13;;
19057;SDS011;9662;53.612;9.914;2023-01-24T08:27:00;14.25;;;5.38;;
19057;SDS011;9662;53.612;9.914;2023-01-24T08:29:27;5.25;;;4.68;;
19057;SDS011;9662;53.612;9.914;2023-01-24T08:31:55;6.32;;;5.68;;
19057;SDS011;9662;53.612;9.914;2023-01-24T08:34:22;9.80;;;6.13;;
19057;SDS011;9662;53.612;9.914;2023-01-24T08:36:49;6.68;;;5.53;;
19057;SDS011;9662;53.612;9.914;2023-01-24T08:39:17;6.65;;;5.63;;
19057;SDS011;9662;53.612;9.914;2023-01-24T08:41:44;5.68;;;5.10;;
19057;SDS011;9662;53.612;9.914;2023-01-24T08:44:12;10.55;;;5.15;;
19057;SDS011;9662;53.612;9.914;2023-01-24T08:46:39;7.90;;;5.20;;
19057;SDS011;9662;53.612;9.914;2023-01-24T08:49:06;5.75;;;5.13;;
19057;SDS011;9662;53.612;9.914;2023-01-24T08:51:33;8.95;;;5.90;;
19057;SDS011;9662;53.612;9.914;2023-01-24T08:54:00;7.85;;;5.72;;
19057;SDS011;9662;53.612;9.914;2023-01-24T08:56:29;8.73;;;5.75;;
19057;SDS011;9662;53.612;9.914;2023-01-24T08:58:56;8.13;;;4.82;;
19057;SDS011;9662;53.612;9.914;2023-01-24T09:01:23;7.07;;;6.17;;
19057;SDS011;9662;53.612;9.914;2023-01-24T09:03:51;7.55;;;5.78;;
19057;SDS011;9662;53.612;9.914;2023-01-24T09:06:19;5.88;;;5.43;;
19057;SDS011;9662;53.612;9.914;2023-01-24T09:08:47;6.67;;;5.33;;
19057;SDS011;9662;53.612;9.914;2023-01-24T09:11:14;6.57;;;5.68;;
19057;SDS011;9662;53.612;9.914;2023-01-24T09:13:42;7.65;;;5.25;;
19057;SDS011;9662;53.612;9.914;2023-01-24T09:16:09;9.18;;;6.00;;
19057;SDS011;9662;53.612;9.914;2023-01-24T09:18:36;5.18;;;4.78;;
19057;SDS011;9662;53.612;9.914;2023-01-24T09:21:04;6.28;;;5.07;;
19057;SDS011;9662;53.612;9.914;2023-01-24T09:23:31;9.05;;;5.55;;
19057;SDS011;9662;53.612;9.914;2023-01-24T09:25:58;5.95;;;5.38;;
19057;SDS011;9662;53.612;9.914;2023-01-24T09:28:25;8.07;;;6.60;;
19057;SDS011;9662;53.612;9.914;2023-01-24T09:30:54;9.00;;;6.15;;
19057;SDS011;9662;53.612;9.914;2023-01-24T09:33:21;7.00;;;5.28;;
19057;SDS011;9662;53.612;9.914;2023-01-24T09:35:52;7.57;;;5.47;;
19057;SDS011;9662;53.612;9.914;2023-01-24T09:38:19;7.65;;;5.97;;
19057;SDS011;9662;53.612;9.914;2023-01-24T09:40:50;6.20;;;5.40;;
19057;SDS011;9662;53.612;9.914;2023-01-24T09:43:23;5.55;;;4.97;;
19057;SDS011;9662;53.612;9.914;2023-01-24T09:45:57;6.85;;;5.80;;
19057;SDS011;9662;53.612;9.914;2023-01-24T09:48:29;10.60;;;6.18;;
19057;SDS011;9662;53.612;9.914;2023-01-24T09:50:59;8.48;;;5.85;;
19057;SDS011;9662;53.612;9.914;2023-01-24T09:53:29;6.00;;;5.45;;
19057;SDS011;9662;53.612;9.914;2023-01-24T09:55:57;5.57;;;5.13;;
19057;SDS011;9662;53.612;9.914;2023-01-24T09:58:27;7.57;;;5.70;;
19057;SDS011;9662;53.612;9.914;2023-01-24T10:00:59;6.53;;;4.90;;
19057;SDS011;9662;53.612;9.914;2023-01-24T10:03:27;5.70;;;5.15;;
19057;SDS011;9662;53.612;9.914;2023-01-24T10:05:55;6.95;;;5.68;;
19057;SDS011;9662;53.612;9.914;2023-01-24T10:08:27;5.60;;;4.72;;
19057;SDS011;9662;53.612;9.914;2023-01-24T10:11:00;6.57;;;5.20;;
19057;SDS011;9662;53.612;9.914;2023-01-24T10:13:36;4.97;;;4.57;;
19057;SDS011;9662;53.612;9.914;2023-01-24T10:16:12;5.10;;;4.65;;
19057;SDS011;9662;53.612;9.914;2023-01-24T10:18:49;5.45;;;5.00;;
19057;SDS011;9662;53.612;9.914;2023-01-24T10:21:22;6.65;;;5.22;;
19057;SDS011;9662;53.612;9.914;2023-01-24T10:23:54;20.65;;;5.47;;
19057;SDS011;9662;53.612;9.914;2023-01-24T10:26:23;10.27;;;5.22;;
19057;SDS011;9662;53.612;9.914;2023-01-24T10:28:52;10.33;;;5.63;;
19057;SDS011;9662;53.612;9.914;2023-01-24T10:31:21;8.73;;;5.60;;
19057;SDS011;9662;53.612;9.914;2023-01-24T10:33:51;8.75;;;5.32;;
19057;SDS011;9662;53.612;9.914;2023-01-24T10:36:22;7.07;;;5.32;;
19057;SDS011;9662;53.612;9.914;2023-01-24T10:38:51;10.77;;;5.95;;
19057;SDS011;9662;53.612;9.914;2023-01-24T10:41:19;11.77;;;5.47;;
19057;SDS011;9662;53.612;9.914;2023-01-24T10:43:49;11.02;;;6.15;;
19057;SDS011;9662;53.612;9.914;2023-01-24T10:46:27;6.70;;;5.88;;
19057;SDS011;9662;53.612;9.914;2023-01-24T10:48:58;11.02;;;5.22;;
19057;SDS011;9662;53.612;9.914;2023-01-24T10:51:27;10.73;;;5.47;;
19057;SDS011;9662;53.612;9.914;2023-01-24T10:53:55;9.00;;;6.07;;
19057;SDS011;9662;53.612;9.914;2023-01-24T10:56:26;6.78;;;5.28;;
19057;SDS011;9662;53.612;9.914;2023-01-24T10:58:54;9.40;;;5.57;;
19057;SDS011;9662;53.612;9.914;2023-01-24T11:01:23;9.60;;;5.93;;
19057;SDS011;9662;53.612;9.914;2023-01-24T11:03:58;7.80;;;5.88;;
19057;SDS011;9662;53.612;9.914;2023-01-24T11:06:29;8.82;;;6.20;;
19057;SDS011;9662;53.612;9.914;2023-01-24T11:09:01;7.28;;;5.70;;
19057;SDS011;9662;53.612;9.914;2023-01-24T11:11:29;12.73;;;6.63;;
19057;SDS011;9662;53.612;9.914;2023-01-24T11:13:57;13.73;;;6.30;;
19057;SDS011;9662;53.612;9.914;2023-01-24T11:16:29;5.40;;;4.90;;
19057;SDS011;9662;53.612;9.914;2023-01-24T11:18:58;7.20;;;4.78;;
19057;SDS011;9662;53.612;9.914;2023-01-24T11:21:26;5.88;;;5.22;;
19057;SDS011;9662;53.612;9.914;2023-01-24T11:24:00;7.85;;;5.50;;
19057;SDS011;9662;53.612;9.914;2023-01-24T11:26:28;6.10;;;5.45;;
19057;SDS011;9662;53.612;9.914;2023-01-24T11:28:57;9.48;;;5.75;;
19057;SDS011;9662;53.612;9.914;2023-01-24T11:31:27;10.32;;;6.10;;
19057;SDS011;9662;53.612;9.914;2023-01-24T11:33:58;6.18;;;5.15;;
19057;SDS011;9662;53.612;9.914;2023-01-24T11:36:32;8.23;;;5.60;;
19057;SDS011;9662;53.612;9.914;2023-01-24T11:39:02;8.63;;;6.13;;
19057;SDS011;9662;53.612;9.914;2023-01-24T11:41:32;6.72;;;5.30;;
19057;SDS011;9662;53.612;9.914;2023-01-24T11:44:13;8.82;;;6.53;;
19057;SDS011;9662;53.612;9.914;2023-01-24T11:46:44;9.60;;;6.32;;
19057;SDS011;9662;53.612;9.914;2023-01-24T11:49:19;10.70;;;5.57;;
19057;SDS011;9662;53.612;9.914;2023-01-24T11:51:50;5.82;;;4.80;;
19057;SDS011;9662;53.612;9.914;2023-01-24T11:54:31;11.82;;;6.10;;
19057;SDS011;9662;53.612;9.914;2023-01-24T11:57:01;8.73;;;4.93;;
19057;SDS011;9662;53.612;9.914;2023-01-24T11:59:37;4.95;;;4.65;;
19057;SDS011;9662;53.612;9.914;2023-01-24T12:02:14;7.88;;;4.65;;
19057;SDS011;9662;53.612;9.914;2023-01-24T12:04:57;7.22;;;5.20;;
19057;SDS011;9662;53.612;9.914;2023-01-24T12:07:31;9.45;;;5.03;;
19057;SDS011;9662;53.612;9.914;2023-01-24T12:10:05;5.13;;;4.43;;
19057;SDS011;9662;53.612;9.914;2023-01-24T12:12:37;9.67;;;5.60;;
19057;SDS011;9662;53.612;9.914;2023-01-24T12:15:11;7.82;;;5.40;;
19057;SDS011;9662;53.612;9.914;2023-01-24T12:17:47;5.75;;;5.25;;
19057;SDS011;9662;53.612;9.914;2023-01-24T12:20:32;5.03;;;4.63;;
19057;SDS011;9662;53.612;9.914;2023-01-24T12:23:08;6.80;;;4.97;;
19057;SDS011;9662;53.612;9.914;2023-01-24T12:25:37;9.10;;;5.25;;
19057;SDS011;9662;53.612;9.914;2023-01-24T12:28:06;7.72;;;5.97;;
19057;SDS011;9662;53.612;9.914;2023-01-24T12:30:37;7.88;;;5.97;;
19057;SDS011;9662;53.612;9.914;2023-01-24T12:33:08;6.43;;;5.45;;
19057;SDS011;9662;53.612;9.914;2023-01-24T12:35:40;15.95;;;6.38;;
19057;SDS011;9662;53.612;9.914;2023-01-24T12:38:11;6.95;;;5.20;;
19057;SDS011;9662;53.612;9.914;2023-01-24T12:40:44;11.27;;;5.80;;
19057;SDS011;9662;53.612;9.914;2023-01-24T12:43:15;5.63;;;5.22;;
19057;SDS011;9662;53.612;9.914;2023-01-24T12:45:45;9.52;;;6.07;;
19057;SDS011;9662;53.612;9.914;2023-01-24T12:48:14;7.35;;;5.95;;
19057;SDS011;9662;53.612;9.914;2023-01-24T12:50:46;6.45;;;5.85;;
19057;SDS011;9662;53.612;9.914;2023-01-24T12:53:17;6.22;;;5.18;;
19057;SDS011;9662;53.612;9.914;2023-01-24T12:55:46;6.47;;;5.93;;
19057;SDS011;9662;53.612;9.914;2023-01-24T12:58:18;8.38;;;5.60;;
19057;SDS011;9662;53.612;9.914;2023-01-24T13:00:50;6.05;;;5.30;;
19057;SDS011;9662;53.612;9.914;2023-01-24T13:03:28;5.82;;;5.32;;
19057;SDS011;9662;53.612;9.914;2023-01-24T13:06:04;7.07;;;5.70;;
19057;SDS011;9662;53.612;9.914;2023-01-24T13:08:38;7.05;;;5.57;;
19057;SDS011;9662;53.612;9.914;2023-01-24T13:11:19;6.05;;;5.47;;
19057;SDS011;9662;53.612;9.914;2023-01-24T13:13:49;5.55;;;5.07;;
19057;SDS011;9662;53.612;9.914;2023-01-24T13:16:30;7.45;;;5.28;;
19057;SDS011;9662;53.612;9.914;2023-01-24T13:19:02;11.35;;;6.07;;
19057;SDS011;9662;53.612;9.914;2023-01-24T13:21:36;7.73;;;6.00;;
19057;SDS011;9662;53.612;9.914;2023-01-24T13:24:14;8.75;;;6.05;;
19057;SDS011;9662;53.612;9.914;2023-01-24T13:26:46;10.30;;;5.55;;
19057;SDS011;9662;53.612;9.914;2023-01-24T13:29:22;7.78;;;5.43;;
19057;SDS011;9662;53.612;9.914;2023-01-24T13:31:56;5.47;;;5.03;;
19057;SDS011;9662;53.612;9.914;2023-01-24T13:34:26;9.25;;;5.38;;
19057;SDS011;9662;53.612;9.914;2023-01-24T13:36:57;7.90;;;5.70;;
19057;SDS011;9662;53.612;9.914;2023-01-24T13:39:28;6.00;;;5.60;;
19057;SDS011;9662;53.612;9.914;2023-01-24T13:42:00;7.47;;;5.70;;
19057;SDS011;9662;53.612;9.914;2023-01-24T13:44:27;9.40;;;5.57;;
19057;SDS011;9662;53.612;9.914;2023-01-24T13:46:56;8.52;;;6.10;;
19057;SDS011;9662;53.612;9.914;2023-01-24T13:49:34;9.30;;;5.53;;
19057;SDS011;9662;53.612;9.914;2023-01-24T13:52:05;6.50;;;5.72;;
19057;SDS011;9662;53.612;9.914;2023-01-24T13:54:50;11.50;;;5.80;;
19057;SDS011;9662;53.612;9.914;2023-01-24T14:03:01;6.75;;;5.80;;
19057;SDS011;9662;53.612;9.914;2023-01-24T14:05:39;8.02;;;6.15;;
19057;SDS011;9662;53.612;9.914;2023-01-24T14:08:15;10.60;;;5.38;;
19057;SDS011;9662;53.612;9.914;2023-01-24T14:11:09;8.60;;;5.30;;
19057;SDS011;9662;53.612;9.914;2023-01-24T14:13:43;7.18;;;5.80;;
19057;SDS011;9662;53.612;9.914;2023-01-24T14:19:04;7.82;;;5.53;;
19057;SDS011;9662;53.612;9.914;2023-01-24T14:21:44;6.03;;;5.45;;
19057;SDS011;9662;53.612;9.914;2023-01-24T14:24:18;6.82;;;6.13;;
19057;SDS011;9662;53.612;9.914;2023-01-24T14:26:45;7.10;;;5.82;;
19057;SDS011;9662;53.612;9.914;2023-01-24T14:29:16;8.63;;;6.10;;
19057;SDS011;9662;53.612;9.914;2023-01-24T14:31:44;18.00;;;6.32;;
19057;SDS011;9662;53.612;9.914;2023-01-24T14:34:13;8.82;;;6.28;;
19057;SDS011;9662;53.612;9.914;2023-01-24T14:36:43;7.13;;;6.53;;
19057;SDS011;9662;53.612;9.914;2023-01-24T14:39:12;6.97;;;5.68;;
19057;SDS011;9662;53.612;9.914;2023-01-24T14:41:41;10.27;;;6.43;;
19057;SDS011;9662;53.612;9.914;2023-01-24T14:44:19;9.65;;;7.30;;
19057;SDS011;9662;53.612;9.914;2023-01-24T14:46:54;7.00;;;6.22;;
19057;SDS011;9662;53.612;9.914;2023-01-24T14:49:28;11.73;;;7.22;;
19057;SDS011;9662;53.612;9.914;2023-01-24T14:51:56;8.25;;;6.65;;
19057;SDS011;9662;53.612;9.914;2023-01-24T14:54:23;7.25;;;6.63;;
19057;SDS011;9662;53.612;9.914;2023-01-24T14:56:52;6.75;;;6.13;;
19057;SDS011;9662;53.612;9.914;2023-01-24T14:59:20;11.43;;;6.32;;
19057;SDS011;9662;53.612;9.914;2023-01-24T15:01:49;8.40;;;6.40;;
19057;SDS011;9662;53.612;9.914;2023-01-24T15:04:21;7.00;;;6.28;;
19057;SDS011;9662;53.612;9.914;2023-01-24T15:07:02;8.20;;;5.70;;
19057;SDS011;9662;53.612;9.914;2023-01-24T15:09:29;8.10;;;6.10;;
19057;SDS011;9662;53.612;9.914;2023-01-24T15:12:09;7.70;;;6.90;;
19057;SDS011;9662;53.612;9.914;2023-01-24T15:14:37;8.35;;;6.90;;
19057;SDS011;9662;53.612;9.914;2023-01-24T15:17:13;6.68;;;5.78;;
19057;SDS011;9662;53.612;9.914;2023-01-24T15:19:44;7.95;;;6.35;;
19057;SDS011;9662;53.612;9.914;2023-01-24T15:22:14;7.25;;;6.53;;